Time;durP1;ratioP1;P1;durP2;ratioP2;P2;SDS_P1;SDS_P2;PMS_P1;PMS_P2;Temp;Humidity;BMP_temperature;BMP_pressure;BME280_temperature;BME280_humidity;BME280_pressure;Samples;Min_cycle;Max_cycle;Signal;HPM_P1;HPM_P2
2022/06/30 00:00:51;;;;;;;14.43;12.78;;;;;;;23.43;64.85;98550.89;1394896;83;21512;-71
2022/06/30 00:02:52;;;;;;;14.10;12.35;;;;;;;23.41;64.87;98542.99;1395600;83;81331;-70
2022/06/30 00:04:53;;;;;;;16.37;12.55;;;;;;;23.40;64.88;98543.13;1396124;83;21048;-70
2022/06/30 00:06:54;;;;;;;22.77;12.40;;;;;;;23.37;64.90;98547.51;1395661;84;21973;-71
2022/06/30 00:08:56;;;;;;;18.98;12.80;;;;;;;23.33;64.97;98546.16;1393556;84;81914;-70
2022/06/30 00:11:06;;;;;;;17.57;13.08;;;;;;;23.28;65.02;98552.87;1395317;84;21501;-69
2022/06/30 00:13:00;;;;;;;20.60;12.82;;;;;;;23.23;65.06;98552.55;1392320;83;21084;-70
2022/06/30 00:15:01;;;;;;;15.03;12.95;;;;;;;23.19;65.12;98549.86;1394090;83;81734;-70
2022/06/30 00:17:02;;;;;;;17.48;12.98;;;;;;;23.13;65.17;98549.98;1366295;85;21509;-71
2022/06/30 00:19:03;;;;;;;17.50;13.93;;;;;;;23.11;65.19;98548.47;1395571;83;20990;-71
2022/06/30 00:21:05;;;;;;;19.87;13.45;;;;;;;23.08;65.22;98550.98;1394511;84;81891;-70
2022/06/30 00:23:06;;;;;;;17.07;13.95;;;;;;;23.05;65.25;98551.80;1395925;83;21805;-71
2022/06/30 00:25:08;;;;;;;19.85;13.45;;;;;;;23.03;65.27;98559.20;1394819;85;21084;-71
2022/06/30 00:27:09;;;;;;;17.95;13.50;;;;;;;23.01;65.30;98558.02;1394617;84;82179;-71
2022/06/30 00:29:11;;;;;;;17.65;13.85;;;;;;;23.00;65.40;98554.13;1395851;84;21536;-70
2022/06/30 00:31:13;;;;;;;25.52;14.07;;;;;;;22.98;65.41;98561.53;1395661;83;21692;-71
2022/06/30 00:33:14;;;;;;;18.05;13.55;;;;;;;22.95;65.43;98560.84;1393644;83;81906;-71
2022/06/30 00:35:15;;;;;;;14.38;12.90;;;;;;;22.91;65.49;98563.51;1395449;83;21052;-72
2022/06/30 00:37:16;;;;;;;30.17;14.83;;;;;;;22.87;65.61;98559.47;1396093;85;21036;-71
2022/06/30 00:39:17;;;;;;;19.57;14.73;;;;;;;22.81;65.70;98562.82;1394276;84;81298;-70
2022/06/30 00:41:18;;;;;;;21.27;14.35;;;;;;;22.78;65.76;98564.49;1397908;83;21052;-71
2022/06/30 00:43:19;;;;;;;15.50;13.98;;;;;;;22.73;65.79;98558.24;1396412;85;21068;-71
2022/06/30 00:45:20;;;;;;;16.32;14.70;;;;;;;22.69;65.82;98557.39;1394651;84;81780;-71
2022/06/30 00:47:21;;;;;;;25.35;14.98;;;;;;;22.66;65.94;98557.73;1395646;83;22341;-71
2022/06/30 00:49:22;;;;;;;16.42;14.70;;;;;;;22.63;66.01;98562.09;1396366;85;21092;-71
2022/06/30 00:51:23;;;;;;;20.55;14.60;;;;;;;22.60;66.06;98565.42;1395205;84;81758;-70
2022/06/30 00:53:25;;;;;;;21.07;14.78;;;;;;;22.57;66.13;98563.58;1395823;83;21093;-71
2022/06/30 00:55:30;;;;;;;20.48;14.70;;;;;;;22.55;66.25;98562.88;1395030;83;21143;-69
2022/06/30 00:57:34;;;;;;;22.15;14.93;;;;;;;22.52;66.25;98564.04;1394028;84;80793;-70
2022/06/30 00:59:38;;;;;;;17.67;14.07;;;;;;;22.52;66.29;98567.23;1394026;84;21046;-71
2022/06/30 01:01:41;;;;;;;16.82;14.75;;;;;;;22.48;66.37;98565.36;1394824;83;81191;-70
2022/06/30 01:03:43;;;;;;;20.40;13.83;;;;;;;22.47;66.42;98566.36;1394485;83;21068;-70
2022/06/30 01:05:46;;;;;;;17.42;14.90;;;;;;;22.44;66.45;98559.97;1395445;84;21695;-71
2022/06/30 01:07:49;;;;;;;20.50;14.75;;;;;;;22.36;66.54;98550.53;1394834;83;81912;-71
2022/06/30 01:14:29;;;;;;;21.00;15.98;;;;;;;22.37;66.80;98550.88;1394297;83;81032;-71
2022/06/30 01:16:31;;;;;;;28.85;14.98;;;;;;;22.34;66.92;98548.52;1366606;85;21537;-70
2022/06/30 01:18:35;;;;;;;35.85;15.50;;;;;;;22.31;67.01;98548.30;1395477;84;21147;-71
2022/06/30 01:20:36;;;;;;;24.63;15.13;;;;;;;22.26;67.06;98544.77;1394154;83;81917;-70
2022/06/30 01:22:37;;;;;;;18.05;14.58;;;;;;;22.24;67.07;98552.13;1396054;84;21715;-71
2022/06/30 01:24:38;;;;;;;26.15;16.15;;;;;;;22.22;67.16;98558.17;1395744;84;21064;-70
2022/06/30 01:26:39;;;;;;;21.20;15.10;;;;;;;22.21;67.21;98549.77;1393828;83;81800;-71
2022/06/30 01:28:40;;;;;;;25.72;15.18;;;;;;;22.21;67.26;98549.77;1396368;84;21520;-71
2022/06/30 01:30:41;;;;;;;27.05;15.95;;;;;;;22.20;67.33;98551.27;1396366;83;21084;-71
2022/06/30 01:32:42;;;;;;;28.25;15.98;;;;;;;22.17;67.40;98552.42;1394096;84;81101;-71
2022/06/30 01:34:44;;;;;;;19.50;15.83;;;;;;;22.10;67.45;98540.13;1396131;84;21080;-69
2022/06/30 01:36:45;;;;;;;22.20;15.58;;;;;;;22.12;67.51;98548.02;1395782;83;21713;-70
2022/06/30 01:38:46;;;;;;;17.85;15.15;;;;;;;22.08;67.57;98547.52;1394894;83;81183;-71
2022/06/30 01:40:48;;;;;;;22.00;15.98;;;;;;;22.07;67.62;98558.38;1396483;83;21052;-71
2022/06/30 01:42:50;;;;;;;21.85;16.70;;;;;;;22.05;67.71;98553.69;1395825;83;21061;-71
2022/06/30 01:44:51;;;;;;;22.75;15.78;;;;;;;22.02;67.74;98547.30;1394059;83;81020;-71
2022/06/30 01:46:52;;;;;;;22.00;16.48;;;;;;;22.01;67.82;98538.39;1395518;83;21124;-70
2022/06/30 01:48:53;;;;;;;22.77;16.80;;;;;;;21.99;67.87;98540.41;1395180;84;21088;-71
2022/06/30 01:50:54;;;;;;;16.90;15.10;;;;;;;21.98;67.92;98541.91;1394652;84;81783;-70
2022/06/30 01:52:57;;;;;;;20.88;16.48;;;;;;;21.98;67.94;98540.56;1395183;83;21540;-72
2022/06/30 01:54:58;;;;;;;23.75;16.62;;;;;;;21.97;68.01;98534.84;1396055;84;21053;-71
2022/06/30 01:56:59;;;;;;;21.68;16.15;;;;;;;21.97;68.02;98530.82;1394589;83;81820;-74
2022/06/30 01:59:01;;;;;;;25.68;16.77;;;;;;;21.95;68.05;98532.33;1396258;83;21023;-70
2022/06/30 02:01:02;;;;;;;22.32;16.65;;;;;;;21.92;68.13;98534.82;1396053;84;21060;-71
2022/06/30 02:03:05;;;;;;;26.52;16.45;;;;;;;21.92;68.15;98533.98;1394606;83;81526;-70
2022/06/30 02:05:06;;;;;;;22.25;15.95;;;;;;;21.91;68.21;98537.66;1395359;83;21045;-71
2022/06/30 02:07:07;;;;;;;21.15;16.00;;;;;;;21.91;68.21;98535.81;1396411;83;21520;-71
2022/06/30 02:09:09;;;;;;;20.27;16.85;;;;;;;21.91;68.23;98539.84;1394506;84;81953;-71
2022/06/30 02:11:10;;;;;;;22.73;16.70;;;;;;;21.92;68.30;98536.67;1395473;84;22194;-72
2022/06/30 02:13:11;;;;;;;24.50;16.85;;;;;;;21.91;68.33;98541.17;1395784;84;21009;-72
2022/06/30 02:15:17;;;;;;;26.60;17.10;;;;;;;21.90;68.33;98535.49;1394554;84;81879;-70
2022/06/30 02:17:18;;;;;;;20.75;17.30;;;;;;;21.90;68.42;98536.84;1395609;84;21052;-71
2022/06/30 02:19:19;;;;;;;20.65;17.02;;;;;;;21.89;68.43;98540.51;1395884;83;21012;-70
2022/06/30 02:21:20;;;;;;;18.12;16.42;;;;;;;21.87;68.48;98533.09;1394218;83;81924;-71
2022/06/30 02:23:21;;;;;;;34.18;17.35;;;;;;;21.86;68.51;98533.26;1396230;83;21083;-71
2022/06/30 02:25:25;;;;;;;22.52;17.12;;;;;;;21.83;68.55;98532.23;1395856;83;21504;-71
2022/06/30 02:27:26;;;;;;;20.25;16.27;;;;;;;21.81;68.63;98539.59;1393339;83;81766;-70
2022/06/30 02:29:27;;;;;;;27.40;18.20;;;;;;;21.79;68.68;98539.75;1395787;83;21536;-71
2022/06/30 02:31:31;;;;;;;19.17;17.25;;;;;;;21.77;68.71;98538.56;1395442;83;21106;-71
2022/06/30 02:33:31;;;;;;;19.23;16.95;;;;;;;21.76;68.72;98532.02;1394127;84;80826;-71
2022/06/30 02:35:33;;;;;;;19.55;17.50;;;;;;;21.73;68.82;98529.66;1394917;83;21176;-71
2022/06/30 02:37:33;;;;;;;24.85;18.37;;;;;;;21.70;68.91;98528.64;1396945;83;21033;-71
2022/06/30 02:39:35;;;;;;;24.25;17.80;;;;;;;21.69;68.95;98522.92;1395353;84;80783;-70
2022/06/30 02:41:36;;;;;;;21.17;18.15;;;;;;;21.67;69.00;98522.22;1395237;84;21069;-71
2022/06/30 02:43:37;;;;;;;19.42;17.48;;;;;;;21.65;69.04;98525.06;1396203;83;21021;-71
2022/06/30 02:45:38;;;;;;;25.62;18.55;;;;;;;21.63;69.12;98520.84;1396347;84;21370;-69
2022/06/30 02:47:42;;;;;;;19.25;17.45;;;;;;;21.60;69.14;98527.39;1395135;83;22450;-71
2022/06/30 02:49:43;;;;;;;28.98;17.87;;;;;;;21.58;69.15;98531.55;1395554;84;81186;-71
2022/06/30 02:51:44;;;;;;;27.22;18.40;;;;;;;21.54;69.27;98524.80;1396460;84;21076;-71
2022/06/30 02:53:45;;;;;;;27.30;17.52;;;;;;;21.52;69.37;98518.77;1394960;83;21116;-70
2022/06/30 02:55:46;;;;;;;23.15;18.95;;;;;;;21.46;69.35;98524.73;1394323;84;81318;-71
2022/06/30 02:57:48;;;;;;;20.80;17.82;;;;;;;21.42;69.42;98529.55;1394111;84;21112;-70
2022/06/30 02:59:49;;;;;;;19.45;17.25;;;;;;;21.40;69.55;98526.67;1392032;84;22273;-70
2022/06/30 03:01:50;;;;;;;26.82;18.07;;;;;;;21.40;69.54;98530.19;1391771;84;81922;-71
2022/06/30 03:03:51;;;;;;;20.72;18.05;;;;;;;21.40;69.56;98533.38;1393756;84;21060;-71
2022/06/30 03:05:52;;;;;;;22.25;18.37;;;;;;;21.38;69.59;98536.73;1393775;84;21002;-71
2022/06/30 03:07:53;;;;;;;38.90;19.70;;;;;;;21.36;69.68;98531.49;1393501;84;81915;-70
2022/06/30 03:09:54;;;;;;;24.50;17.90;;;;;;;21.37;69.76;98533.70;1394715;84;21052;-70
2022/06/30 03:11:55;;;;;;;27.13;18.57;;;;;;;21.37;69.78;98531.84;1393441;84;21089;-71
2022/06/30 03:13:56;;;;;;;23.70;17.57;;;;;;;21.37;69.83;98530.50;1392600;84;82057;-70
2022/06/30 03:15:57;;;;;;;36.28;19.45;;;;;;;21.38;69.85;98536.73;1392426;84;21037;-69
2022/06/30 03:17:59;;;;;;;36.20;19.45;;;;;;;21.39;69.91;98530.34;1393195;84;21072;-71
2022/06/30 03:20:01;;;;;;;36.73;19.25;;;;;;;21.39;69.94;98535.71;1392667;84;82247;-70
2022/06/30 03:22:04;;;;;;;32.63;19.32;;;;;;;21.39;69.99;98534.37;1393254;84;21069;-70
2022/06/30 03:24:05;;;;;;;37.23;19.75;;;;;;;21.38;70.03;98526.84;1393815;84;21006;-70
2022/06/30 03:26:07;;;;;;;25.77;19.17;;;;;;;21.39;70.09;98527.67;1392584;84;81703;-70
2022/06/30 03:28:08;;;;;;;25.57;18.77;;;;;;;21.38;70.12;98527.34;1393253;84;21205;-71
2022/06/30 03:30:10;;;;;;;28.27;19.10;;;;;;;21.37;70.19;98521.63;1393263;84;21540;-70
2022/06/30 03:32:11;;;;;;;24.65;18.90;;;;;;;21.37;70.24;98522.97;1392318;84;82196;-69
2022/06/30 03:34:12;;;;;;;23.57;19.32;;;;;;;21.36;70.31;98527.98;1394029;84;22545;-70
2022/06/30 03:36:13;;;;;;;25.45;18.32;;;;;;;21.34;70.33;98525.45;1393463;84;21013;-70
2022/06/30 03:38:15;;;;;;;29.57;18.35;;;;;;;21.32;70.35;98530.11;1391067;84;80977;-70
2022/06/30 03:40:16;;;;;;;22.98;18.27;;;;;;;21.32;70.39;98526.60;1392722;84;21315;-70
2022/06/30 03:42:17;;;;;;;25.70;18.80;;;;;;;21.34;70.42;98527.31;1393553;84;21267;-71
2022/06/30 03:44:18;;;;;;;26.57;18.65;;;;;;;21.34;70.45;98524.63;1392685;84;81469;-70
2022/06/30 03:46:19;;;;;;;24.43;17.70;;;;;;;21.35;70.46;98532.98;1393525;84;21077;-70
2022/06/30 03:48:20;;;;;;;29.10;18.35;;;;;;;21.36;70.51;98531.49;1392196;84;21096;-71
2022/06/30 03:50:21;;;;;;;28.75;18.57;;;;;;;21.39;70.55;98530.34;1393752;84;81050;-70
2022/06/30 03:52:22;;;;;;;27.93;18.17;;;;;;;21.43;70.53;98537.09;1393104;84;21017;-71
2022/06/30 03:54:23;;;;;;;33.83;19.32;;;;;;;21.45;70.57;98547.17;1393307;84;21072;-70
2022/06/30 03:56:24;;;;;;;35.13;19.40;;;;;;;21.48;70.58;98553.56;1391886;84;81994;-71
2022/06/30 03:58:26;;;;;;;31.05;19.00;;;;;;;21.51;70.62;98548.39;1392750;84;20989;-71
2022/06/30 04:00:27;;;;;;;23.55;18.30;;;;;;;21.56;70.62;98546.96;1392772;84;21017;-69
2022/06/30 04:02:28;;;;;;;28.50;19.00;;;;;;;21.60;70.63;98545.66;1392092;84;81930;-69
2022/06/30 04:04:29;;;;;;;33.53;18.90;;;;;;;21.64;70.63;98546.20;1393023;84;21092;-70
2022/06/30 04:06:30;;;;;;;27.37;19.40;;;;;;;21.69;70.63;98544.38;1393100;84;22307;-71
2022/06/30 04:08:31;;;;;;;21.25;18.10;;;;;;;21.70;70.63;98544.22;1391845;84;82230;-71
2022/06/30 04:10:32;;;;;;;23.80;19.30;;;;;;;21.73;70.63;98545.75;1393396;84;21025;-70
2022/06/30 04:12:33;;;;;;;29.18;19.67;;;;;;;21.78;70.65;98546.14;1392870;84;21053;-70
2022/06/30 04:14:34;;;;;;;25.70;19.45;;;;;;;21.82;70.64;98548.84;1392403;84;81928;-70
2022/06/30 04:16:35;;;;;;;22.32;18.75;;;;;;;21.86;70.66;98548.88;1393001;84;20989;-70
2022/06/30 04:18:36;;;;;;;27.35;19.12;;;;;;;21.90;70.66;98548.05;1391903;84;20994;-70
2022/06/30 04:20:37;;;;;;;20.20;18.20;;;;;;;21.95;70.59;98547.08;1391712;84;81687;-70
2022/06/30 04:22:38;;;;;;;26.65;19.87;;;;;;;21.99;70.63;98544.91;1393247;84;21038;-70
2022/06/30 04:24:39;;;;;;;24.52;18.80;;;;;;;22.02;70.61;98548.64;1392325;84;21962;-70
2022/06/30 04:26:40;;;;;;;22.32;19.23;;;;;;;22.06;70.60;98540.62;1391800;84;81868;-70
2022/06/30 04:28:40;;;;;;;28.35;18.82;;;;;;;22.09;70.57;98542.98;1393291;84;21046;-70
2022/06/30 04:32:59;;;;;;;25.10;18.23;;;;;;;22.10;70.58;98541.98;1300725;89;81082;-70
2022/06/30 04:35:00;;;;;;;29.35;19.02;;;;;;;22.20;70.58;98552.61;1302066;89;21135;-70
2022/06/30 04:37:02;;;;;;;31.15;18.85;;;;;;;22.22;70.60;98556.83;1302456;90;21655;-70
2022/06/30 04:39:03;;;;;;;38.45;18.62;;;;;;;22.00;70.58;98504.53;1300326;89;81886;-71
2022/06/30 04:43:23;;;;;;;33.40;19.17;;;;;;;22.32;70.51;98553.16;1302212;89;21135;-70
2022/06/30 04:45:24;;;;;;;30.10;19.00;;;;;;;22.36;70.52;98551.88;1299802;89;81221;-70
2022/06/30 04:47:25;;;;;;;27.85;18.42;;;;;;;22.40;70.43;98553.23;1303255;89;21638;-70
2022/06/30 04:49:27;;;;;;;32.90;18.70;;;;;;;22.44;70.44;98551.91;1303244;89;21026;-70
2022/06/30 04:51:28;;;;;;;30.37;18.85;;;;;;;22.48;70.45;98560.50;1301805;89;81084;-70
2022/06/30 04:53:29;;;;;;;23.32;19.75;;;;;;;22.52;70.46;98556.50;1303761;89;21058;-70
2022/06/30 04:55:30;;;;;;;21.00;18.00;;;;;;;22.56;70.43;98555.17;1301830;89;21067;-70
2022/06/30 04:57:31;;;;;;;39.80;19.60;;;;;;;22.59;70.39;98561.05;1301859;89;81063;-70
2022/06/30 04:59:32;;;;;;;39.92;18.80;;;;;;;22.62;70.39;98565.26;1302457;89;21115;-70
2022/06/30 05:01:33;;;;;;;33.50;17.90;;;;;;;22.65;70.38;98565.44;1302901;89;21627;-70
2022/06/30 05:03:34;;;;;;;43.98;19.40;;;;;;;22.69;70.35;98568.14;1303212;89;81840;-70
2022/06/30 05:05:35;;;;;;;65.75;19.52;;;;;;;22.73;70.38;98563.62;1302525;90;21726;-69
2022/06/30 05:07:36;;;;;;;30.00;17.82;;;;;;;22.78;70.26;98561.30;1346943;84;22169;-69
2022/06/30 05:09:37;;;;;;;46.18;18.67;;;;;;;22.84;70.27;98560.31;1392679;84;80928;-70
2022/06/30 05:11:38;;;;;;;41.23;19.80;;;;;;;22.86;70.15;98559.63;1392642;84;21377;-71
2022/06/30 05:13:40;;;;;;;38.48;19.00;;;;;;;22.88;70.20;98562.50;1393627;84;21469;-70
2022/06/30 05:15:41;;;;;;;40.90;18.92;;;;;;;22.93;70.23;98564.72;1392852;84;21037;-70
2022/06/30 05:17:42;;;;;;;35.55;19.35;;;;;;;22.98;70.18;98566.91;1393294;84;21147;-70
2022/06/30 05:19:43;;;;;;;35.08;19.48;;;;;;;23.02;70.11;98568.26;1391816;84;82473;-70
2022/06/30 05:21:44;;;;;;;29.10;19.07;;;;;;;23.07;70.05;98569.96;1393008;84;21593;-70
2022/06/30 05:26:28;;;;;;;33.75;20.15;;;;;;;23.10;70.08;98566.94;1392560;84;21081;-70
2022/06/30 05:28:08;;;;;;;26.52;19.70;;;;;;;23.17;70.08;98561.27;1392100;84;21081;-70
2022/06/30 05:30:10;;;;;;;37.28;20.27;;;;;;;23.25;70.10;98559.11;1391681;84;21548;-69
2022/06/30 05:32:11;;;;;;;22.98;19.25;;;;;;;23.29;70.04;98565.33;1390911;84;81899;-70
2022/06/30 05:34:12;;;;;;;27.65;18.90;;;;;;;23.33;70.00;98563.64;1392696;84;21738;-69
2022/06/30 05:36:13;;;;;;;27.17;19.65;;;;;;;23.38;70.02;98568.02;1392822;84;21025;-69
2022/06/30 05:38:15;;;;;;;32.78;19.25;;;;;;;23.43;69.89;98554.92;1391112;84;82032;-70
2022/06/30 05:40:16;;;;;;;37.55;18.98;;;;;;;23.48;69.81;98555.24;1391901;84;21097;-69
2022/06/30 05:42:17;;;;;;;26.05;19.07;;;;;;;23.56;69.71;98563.32;1393067;84;21077;-70
2022/06/30 05:44:18;;;;;;;32.48;19.67;;;;;;;23.60;69.59;98561.14;1391358;84;81100;-69
2022/06/30 05:46:19;;;;;;;24.18;18.70;;;;;;;23.66;69.55;98552.91;1392741;84;21361;-70
2022/06/30 05:48:20;;;;;;;24.57;19.40;;;;;;;23.70;69.51;98550.21;1391476;84;21560;-69
2022/06/30 05:50:22;;;;;;;37.53;20.88;;;;;;;23.76;69.39;98553.08;1391753;84;80961;-69
2022/06/30 05:52:23;;;;;;;32.25;19.65;;;;;;;23.81;69.36;98552.55;1392218;84;21057;-70
2022/06/30 05:54:24;;;;;;;28.83;18.40;;;;;;;23.85;69.37;98553.90;1392043;84;21542;-70
2022/06/30 05:56:25;;;;;;;31.97;18.77;;;;;;;23.90;69.28;98556.96;1391548;84;81806;-70
2022/06/30 05:58:26;;;;;;;31.57;18.07;;;;;;;23.97;69.20;98557.12;1392979;84;21639;-71
2022/06/30 06:00:29;;;;;;;27.82;18.20;;;;;;;24.03;69.01;98555.60;1392866;84;21013;-70
2022/06/30 06:02:30;;;;;;;29.32;18.32;;;;;;;24.07;68.95;98552.91;1390390;84;80990;-70
2022/06/30 06:04:31;;;;;;;25.72;17.42;;;;;;;24.12;68.98;98559.97;1393519;84;21048;-70
2022/06/30 06:06:33;;;;;;;21.60;18.30;;;;;;;24.17;69.01;98552.19;1393197;85;21061;-70
2022/06/30 06:08:34;;;;;;;33.90;19.67;;;;;;;24.25;68.88;98564.81;1379399;84;80813;-70
2022/06/30 06:10:35;;;;;;;40.28;19.12;;;;;;;24.31;68.80;98560.93;1362200;85;20985;-70
2022/06/30 06:12:37;;;;;;;30.32;17.35;;;;;;;24.38;68.83;98562.91;1361909;85;21580;-70
2022/06/30 06:14:38;;;;;;;28.85;17.10;;;;;;;24.46;68.77;98558.85;1375385;84;81777;-70
2022/06/30 06:16:39;;;;;;;33.10;17.80;;;;;;;24.52;68.64;98562.70;1393292;84;20994;-69
2022/06/30 06:18:40;;;;;;;34.88;17.10;;;;;;;24.57;68.71;98554.42;1392358;84;21064;-70
2022/06/30 06:20:42;;;;;;;41.18;18.57;;;;;;;24.64;68.62;98553.26;1389893;84;80816;-70
2022/06/30 06:22:44;;;;;;;39.55;17.48;;;;;;;24.70;68.50;98557.11;1392604;84;20973;-70
2022/06/30 06:24:45;;;;;;;36.58;15.70;;;;;;;24.74;68.41;98559.30;1391972;84;21012;-70
2022/06/30 06:26:46;;;;;;;35.83;17.35;;;;;;;24.78;68.27;98559.77;1390586;84;80813;-70
2022/06/30 06:29:09;;;;;;;24.23;17.27;;;;;;;24.83;68.34;98562.78;1392259;84;21101;-69
2022/06/30 06:30:50;;;;;;;34.00;15.80;;;;;;;24.86;68.33;98559.73;1383145;84;21033;-69
2022/06/30 06:32:51;;;;;;;29.42;16.95;;;;;;;24.90;68.25;98566.45;1388743;84;80990;-70
2022/06/30 06:34:52;;;;;;;41.40;17.25;;;;;;;24.96;68.19;98576.55;1392399;84;21062;-69
2022/06/30 06:36:53;;;;;;;38.83;17.17;;;;;;;25.03;68.01;98571.78;1392111;84;21080;-71
2022/06/30 06:38:54;;;;;;;37.33;16.27;;;;;;;25.10;67.99;98571.39;1390377;84;81958;-70
2022/06/30 06:40:55;;;;;;;43.75;16.37;;;;;;;25.16;67.83;98580.14;1391647;84;22199;-70
2022/06/30 06:42:56;;;;;;;37.05;17.02;;;;;;;25.21;67.75;98579.59;1391179;84;21544;-70
2022/06/30 06:44:57;;;;;;;37.58;16.27;;;;;;;25.27;67.66;98574.85;1390284;84;81735;-70
2022/06/30 06:46:58;;;;;;;38.85;16.45;;;;;;;25.33;67.60;98568.23;1392570;84;21162;-71
2022/06/30 06:49:04;;;;;;;59.23;16.80;;;;;;;25.41;67.68;98578.15;1392173;84;21053;-70
2022/06/30 06:51:04;;;;;;;49.60;16.02;;;;;;;25.48;67.55;98585.02;1391138;84;81015;-70
2022/06/30 06:53:05;;;;;;;55.12;16.05;;;;;;;25.54;67.56;98578.89;1390718;84;21080;-71
2022/06/30 06:55:07;;;;;;;38.28;16.07;;;;;;;25.61;67.44;98583.89;1392337;84;21064;-70
2022/06/30 06:57:08;;;;;;;45.17;17.35;;;;;;;25.69;67.37;98587.56;1391088;84;82153;-70
2022/06/30 06:59:09;;;;;;;32.45;16.73;;;;;;;25.79;67.19;98576.00;1392036;84;21033;-70
2022/06/30 07:01:10;;;;;;;46.30;16.87;;;;;;;25.86;67.27;98581.51;1391751;84;21544;-70
2022/06/30 07:03:12;;;;;;;37.00;16.12;;;;;;;25.92;67.10;98574.02;1390622;84;81681;-69
2022/06/30 07:05:13;;;;;;;33.05;16.32;;;;;;;25.99;67.16;98572.28;1390518;84;21080;-70
2022/06/30 07:07:14;;;;;;;37.10;17.70;;;;;;;26.07;67.04;98574.94;1391588;84;21081;-70
2022/06/30 07:09:15;;;;;;;34.40;16.67;;;;;;;26.15;66.99;98578.05;1390881;84;82174;-69
2022/06/30 07:11:16;;;;;;;47.08;17.00;;;;;;;26.22;66.94;98574.11;1391220;84;21045;-70
2022/06/30 07:13:17;;;;;;;65.72;15.95;;;;;;;26.27;66.86;98573.88;1391137;84;21045;-70
2022/06/30 07:15:19;;;;;;;76.15;16.45;;;;;;;26.32;66.63;98573.31;1389739;84;81235;-70
2022/06/30 07:17:20;;;;;;;51.20;14.85;;;;;;;26.39;66.49;98578.81;1392439;84;21318;-69
2022/06/30 07:19:21;;;;;;;47.05;15.32;;;;;;;26.45;66.44;98576.22;1391825;84;21020;-70
2022/06/30 07:21:21;;;;;;;38.00;15.85;;;;;;;26.50;66.35;98571.10;1389502;85;81360;-70
2022/06/30 07:23:22;;;;;;;42.60;15.70;;;;;;;26.56;66.22;98573.56;1391605;84;21053;-70
2022/06/30 07:25:24;;;;;;;36.13;16.87;;;;;;;26.61;66.19;98571.64;1391875;84;21081;-70
2022/06/30 07:27:24;;;;;;;59.33;15.72;;;;;;;26.63;66.00;98573.13;1389320;84;81780;-70
2022/06/30 07:29:26;;;;;;;64.62;15.13;;;;;;;26.74;65.73;98573.73;1392020;84;20981;-70
2022/06/30 07:31:28;;;;;;;49.60;15.10;;;;;;;26.80;65.60;98579.20;1391088;84;21104;-69
2022/06/30 07:33:29;;;;;;;58.42;14.65;;;;;;;26.89;65.78;98578.60;1391440;84;81769;-70
2022/06/30 07:35:30;;;;;;;53.95;15.15;;;;;;;26.94;65.51;98579.38;1391721;84;21045;-70
2022/06/30 07:37:33;;;;;;;53.40;16.55;;;;;;;26.95;65.33;98571.06;1392153;84;21076;-70
2022/06/30 07:39:52;;;;;;;50.95;14.43;;;;;;;27.00;65.30;98571.34;1392583;84;21101;-70
2022/06/30 07:41:55;;;;;;;55.95;14.95;;;;;;;27.13;65.10;98572.00;1390852;84;21021;-69
2022/06/30 07:43:56;;;;;;;55.90;14.73;;;;;;;27.23;65.15;98568.98;1391001;84;80944;-70
2022/06/30 07:45:57;;;;;;;43.58;14.58;;;;;;;27.33;65.06;98569.53;1392661;84;21075;-71
2022/06/30 07:47:58;;;;;;;45.70;14.25;;;;;;;27.40;64.96;98568.28;1391559;84;21161;-70
2022/06/30 07:49:59;;;;;;;28.55;13.43;;;;;;;27.50;64.66;98571.49;1391687;84;81160;-70
2022/06/30 07:52:00;;;;;;;33.28;13.53;;;;;;;27.63;64.64;98569.94;1391958;84;21515;-70
2022/06/30 07:54:01;;;;;;;41.28;13.03;;;;;;;27.72;64.37;98572.84;1392153;84;21163;-71
2022/06/30 07:56:02;;;;;;;28.15;13.32;;;;;;;27.83;64.14;98574.16;1365618;85;82207;-70
2022/06/30 07:58:04;;;;;;;35.90;14.70;;;;;;;27.90;64.07;98568.31;1391157;84;21077;-69
2022/06/30 08:00:11;;;;;;;30.57;14.07;;;;;;;28.01;63.85;98562.88;1391343;84;21104;-70
2022/06/30 08:02:13;;;;;;;27.37;13.30;;;;;;;28.08;63.66;98564.28;1392176;84;81765;-70
2022/06/30 08:04:17;;;;;;;31.07;12.58;;;;;;;28.12;63.53;98562.36;1390790;84;21419;-70
2022/06/30 08:06:16;;;;;;;44.03;14.10;;;;;;;28.17;63.42;98563.11;1392403;84;21041;-71
2022/06/30 08:08:18;;;;;;;28.02;13.83;;;;;;;28.25;62.63;98562.96;1391735;84;81498;-70
2022/06/30 08:10:19;;;;;;;31.60;13.48;;;;;;;28.33;62.46;98564.69;1392633;84;21045;-70
2022/06/30 08:12:21;;;;;;;32.30;14.43;;;;;;;28.39;62.29;98565.77;1360319;85;21130;-71
2022/06/30 08:14:23;;;;;;;32.60;12.55;;;;;;;28.42;61.78;98568.89;1392232;84;80972;-71
2022/06/30 08:16:26;;;;;;;41.18;14.00;;;;;;;28.48;62.02;98571.32;1393251;84;21060;-71
2022/06/30 08:18:27;;;;;;;51.05;15.00;;;;;;;28.61;61.70;98564.62;1392847;84;21084;-72
2022/06/30 08:20:28;;;;;;;30.15;12.80;;;;;;;28.63;61.50;98563.92;1391916;84;80914;-71
2022/06/30 08:22:29;;;;;;;37.20;11.63;;;;;;;28.66;61.70;98567.61;1391816;84;21038;-70
2022/06/30 08:24:30;;;;;;;17.67;11.03;;;;;;;28.75;61.73;98563.38;1392930;84;21742;-71
2022/06/30 08:26:31;;;;;;;28.85;11.43;;;;;;;28.80;61.39;98563.08;1391948;84;81150;-71
2022/06/30 08:28:33;;;;;;;32.93;11.30;;;;;;;28.91;61.23;98564.38;1392640;84;21097;-70
2022/06/30 08:30:35;;;;;;;25.77;12.45;;;;;;;29.08;60.96;98570.78;1392786;84;21123;-70
2022/06/30 08:32:36;;;;;;;47.70;13.15;;;;;;;29.14;60.65;98569.98;1390486;84;81694;-69
2022/06/30 08:34:37;;;;;;;25.12;11.97;;;;;;;29.13;60.57;98565.59;1391996;84;21092;-71
2022/06/30 08:36:38;;;;;;;41.50;11.48;;;;;;;29.17;60.68;98569.06;1390669;84;21069;-71
2022/06/30 08:38:38;;;;;;;24.67;11.35;;;;;;;29.33;60.54;98569.22;1391838;84;81711;-72
2022/06/30 08:43:03;;;;;;;47.67;11.53;;;;;;;29.65;60.04;98562.69;1390782;84;21315;-72
2022/06/30 08:45:16;;;;;;;35.58;10.98;;;;;;;29.85;60.10;98566.81;1390944;84;81423;-72
2022/06/30 08:47:17;;;;;;;49.65;11.28;;;;;;;30.06;59.68;98561.67;1392768;84;21045;-71
2022/06/30 08:49:18;;;;;;;38.53;11.22;;;;;;;30.26;59.04;98558.09;1392173;84;21548;-72
2022/06/30 08:51:21;;;;;;;35.13;11.40;;;;;;;30.36;59.13;98562.55;1391861;84;81059;-72
2022/06/30 08:53:24;;;;;;;40.55;11.50;;;;;;;30.46;59.20;98554.52;1393039;84;21040;-72
2022/06/30 08:55:31;;;;;;;43.60;12.75;;;;;;;30.56;58.96;98555.74;1392111;84;21683;-72
2022/06/30 08:57:32;;;;;;;34.65;12.07;;;;;;;30.68;58.57;98562.73;1390658;84;81638;-72
2022/06/30 08:59:35;;;;;;;29.67;11.90;;;;;;;30.74;58.42;98555.05;1392433;84;21040;-71
2022/06/30 09:01:37;;;;;;;34.05;11.03;;;;;;;30.85;58.29;98564.43;1393056;84;21023;-72
2022/06/30 09:03:39;;;;;;;42.05;11.25;;;;;;;30.96;58.07;98557.48;1392381;84;80758;-72
2022/06/30 09:05:44;;;;;;;44.53;10.58;;;;;;;31.02;58.24;98554.45;1393557;84;21694;-73
2022/06/30 09:07:45;;;;;;;40.15;10.43;;;;;;;31.13;57.95;98565.18;1392091;84;82463;-72
2022/06/30 09:09:46;;;;;;;43.55;10.45;;;;;;;31.19;57.17;98558.84;1393266;84;21043;-72
2022/06/30 09:11:50;;;;;;;16.67;8.80;;;;;;;31.27;57.78;98564.04;1360720;87;21090;-73
2022/06/30 09:13:51;;;;;;;16.82;8.80;;;;;;;31.43;57.49;98561.84;1392113;84;81861;-73
2022/06/30 09:15:52;;;;;;;24.35;9.75;;;;;;;31.54;56.92;98556.54;1391724;84;21726;-72
2022/06/30 09:17:53;;;;;;;31.30;9.93;;;;;;;31.58;56.85;98556.91;1393349;84;21587;-72
2022/06/30 09:20:12;;;;;;;26.45;9.15;;;;;;;31.66;56.60;98560.76;1392476;84;81824;-72
2022/06/30 09:22:14;;;;;;;23.22;9.58;;;;;;;31.70;56.50;98558.44;1391043;84;21525;-72
2022/06/30 09:24:22;;;;;;;47.40;10.05;;;;;;;31.78;56.48;98555.95;1393299;84;21033;-72
2022/06/30 09:26:23;;;;;;;15.25;8.95;;;;;;;31.92;56.50;98552.07;1390973;84;80849;-73
2022/06/30 09:28:42;;;;;;;24.65;8.55;;;;;;;32.15;56.34;98551.48;1392178;84;21025;-73
2022/06/30 09:30:43;;;;;;;24.67;9.30;;;;;;;32.29;55.90;98549.45;1393356;84;21073;-74
2022/06/30 09:32:53;;;;;;;16.27;8.03;;;;;;;32.50;55.59;98551.44;1392645;84;80977;-73